Terminal Aerodrome Forecast
Issued by NWS

Home | Current Version | Previous Version | Text Only | Print | Product List | Glossary Off
Versions: 1 2 3 4 5 6 7 8 9 10 11 12 13 14 15 16 17 18 19 20 21 22 23 24 25 26 27 28 29

000
FTUS43 KLOT 240208 AAA
TAFORD
TAF AMD
KORD 240208Z 2402/2506 28007KT P6SM SCT015 OVC200
     FM240500 34005KT P6SM SCT015 OVC200
     FM240900 04007KT P6SM SCT007 OVC015
     FM241200 08012KT P6SM OVC015
     FM250000 11013KT 6SM -RA BR OVC008
     FM250300 15014KT 2SM -RA BR OVC004 WS020/19045KT=

USA.gov is the U.S. government's official web portal to all federal, state and local government web resources and services.